Time;durP1;ratioP1;P1;durP2;ratioP2;P2;SDS_P1;SDS_P2;PMS_P1;PMS_P2;Temp;Humidity;BMP_temperature;BMP_pressure;BME280_temperature;BME280_humidity;BME280_pressure;Samples;Min_cycle;Max_cycle;Signal;HPM_P1;HPM_P2
2022/09/30 00:01:28;;;;;;;44.72;24.00;;;7.10;1.00;;;;;;6277312;22;20031;-88
2022/09/30 00:04:23;;;;;;;49.20;23.30;;;7.20;1.00;;;;;;6280003;22;20335;-88
2022/09/30 00:07:10;;;;;;;41.67;23.90;;;7.20;1.00;;;;;;6278132;22;20023;-87
2022/09/30 00:09:58;;;;;;;42.38;24.10;;;7.20;1.00;;;;;;6255837;22;20023;-89
2022/09/30 00:12:46;;;;;;;46.17;23.70;;;7.10;1.00;;;;;;6279434;22;20032;-88
2022/09/30 00:15:33;;;;;;;48.60;25.13;;;7.10;1.00;;;;;;6278278;22;20024;-87
2022/09/30 00:18:20;;;;;;;38.40;23.08;;;7.10;1.00;;;;;;6284616;22;20024;-88
2022/09/30 00:21:08;;;;;;;43.50;23.88;;;7.10;1.00;;;;;;6279217;22;20030;-89
2022/09/30 00:23:58;;;;;;;38.55;23.50;;;7.10;1.00;;;;;;6278862;22;20034;-89
2022/09/30 00:26:45;;;;;;;46.08;25.98;;;7.10;1.00;;;;;;6280467;22;20042;-88
2022/09/30 00:29:37;;;;;;;38.42;23.65;;;7.10;1.00;;;;;;6277695;22;20102;-87
2022/09/30 00:32:24;;;;;;;39.38;23.70;;;7.10;1.00;;;;;;6254245;22;20023;-88
2022/09/30 00:35:11;;;;;;;40.88;23.15;;;7.10;1.00;;;;;;6277440;22;20034;-87
2022/09/30 00:37:59;;;;;;;41.72;23.58;;;7.10;1.00;;;;;;6255941;22;20019;-88
2022/09/30 00:40:48;;;;;;;35.25;23.17;;;7.10;1.00;;;;;;6276868;22;20103;-86
2022/09/30 00:43:52;;;;;;;44.13;23.75;;;7.20;1.00;;;;;;6280537;22;20016;-88
2022/09/30 00:46:39;;;;;;;40.92;22.83;;;7.20;1.00;;;;;;6279326;22;20024;-87
2022/09/30 00:49:33;;;;;;;48.08;25.58;;;7.20;1.00;;;;;;6280967;22;20028;-88
2022/09/30 00:52:21;;;;;;;48.03;25.52;;;7.30;11.00;;;;;;6280204;22;20284;-88
2022/09/30 00:55:32;;;;;;;38.80;24.40;;;7.30;12.20;;;;;;6282932;22;20049;-87
2022/09/30 00:58:28;;;;;;;45.10;24.65;;;7.40;14.20;;;;;;6277186;22;20020;-89
2022/09/30 01:01:17;;;;;;;40.85;24.75;;;7.30;12.90;;;;;;6280362;22;20058;-89
2022/09/30 01:04:21;;;;;;;40.30;22.77;;;7.30;13.60;;;;;;6258868;22;20035;-88
2022/09/30 01:07:09;;;;;;;42.97;25.63;;;7.30;14.50;;;;;;6278924;22;20028;-87
2022/09/30 01:10:00;;;;;;;43.97;23.80;;;7.40;16.20;;;;;;6279662;22;20065;-87
2022/09/30 01:12:47;;;;;;;51.10;26.25;;;7.40;15.20;;;;;;6279610;22;20099;-87
2022/09/30 01:16:05;;;;;;;41.95;25.05;;;7.40;11.90;;;;;;6278021;22;20020;-87
2022/09/30 01:19:14;;;;;;;41.22;26.50;;;7.30;7.00;;;;;;6280132;22;20468;-88
2022/09/30 01:22:32;;;;;;;41.47;25.30;;;7.30;5.40;;;;;;6279287;22;20303;-88
2022/09/30 01:25:54;;;;;;;42.22;24.73;;;7.30;2.00;;;;;;6254506;22;20019;-88
2022/09/30 01:28:56;;;;;;;43.40;23.13;;;7.30;1.00;;;;;;6278395;22;20028;-88
2022/09/30 01:32:01;;;;;;;41.58;22.17;;;7.30;1.00;;;;;;6255484;22;20033;-88
2022/09/30 01:35:28;;;;;;;40.83;20.90;;;7.30;1.00;;;;;;6278453;22;20414;-88
2022/09/30 01:38:18;;;;;;;30.38;20.13;;;7.30;1.00;;;;;;6195708;22;20031;-88
2022/09/30 01:41:12;;;;;;;33.95;20.73;;;7.30;1.00;;;;;;6279356;22;20038;-88
2022/09/30 01:44:26;;;;;;;40.10;20.05;;;7.30;1.00;;;;;;6277772;22;20031;-86
2022/09/30 01:47:25;;;;;;;37.65;21.35;;;7.40;1.00;;;;;;6276351;22;20046;-86
2022/09/30 01:50:19;;;;;;;32.80;21.25;;;7.40;1.00;;;;;;6281117;22;20019;-87
2022/09/30 01:53:26;;;;;;;36.47;20.13;;;7.40;1.00;;;;;;6284115;22;20027;-88
2022/09/30 01:56:27;;;;;;;34.42;20.83;;;7.40;1.00;;;;;;6276424;22;20023;-87
2022/09/30 01:59:24;;;;;;;34.13;21.30;;;7.40;1.00;;;;;;6278495;22;20019;-87
2022/09/30 02:02:22;;;;;;;36.17;20.60;;;7.40;1.00;;;;;;6276201;22;20430;-88
2022/09/30 02:05:23;;;;;;;36.05;20.77;;;7.40;1.00;;;;;;6254973;22;20042;-87
2022/09/30 02:08:33;;;;;;;29.60;20.27;;;7.40;1.00;;;;;;6279294;22;20095;-88
2022/09/30 02:11:25;;;;;;;33.20;20.83;;;7.30;1.00;;;;;;6255368;22;20415;-88
2022/09/30 02:14:25;;;;;;;34.60;20.83;;;7.30;1.00;;;;;;6277622;22;20043;-88
2022/09/30 02:17:19;;;;;;;41.65;22.33;;;7.30;1.00;;;;;;6277595;22;20024;-88
2022/09/30 02:20:19;;;;;;;33.50;21.45;;;7.30;1.00;;;;;;6276638;22;20034;-89
2022/09/30 02:23:26;;;;;;;32.97;21.58;;;7.30;1.00;;;;;;6280276;22;20023;-89
2022/09/30 02:26:25;;;;;;;34.00;21.23;;;7.30;1.00;;;;;;6275976;22;20050;-88
2022/09/30 02:29:20;;;;;;;32.65;20.08;;;7.30;1.00;;;;;;6279523;22;20311;-88
2022/09/30 02:32:25;;;;;;;31.20;19.60;;;7.20;1.00;;;;;;6278220;22;20427;-88
2022/09/30 02:35:27;;;;;;;38.97;20.98;;;7.20;1.00;;;;;;6254776;22;20024;-89
2022/09/30 02:38:28;;;;;;;28.33;18.42;;;7.20;1.00;;;;;;6278334;22;20292;-87
2022/09/30 02:41:22;;;;;;;30.50;18.50;;;7.10;1.00;;;;;;6254020;22;20364;-88
2022/09/30 02:44:10;;;;;;;30.02;17.95;;;7.10;1.00;;;;;;6256357;22;20083;-88
2022/09/30 02:47:21;;;;;;;37.92;17.65;;;7.10;1.00;;;;;;6276624;22;20098;-89
2022/09/30 02:50:33;;;;;;;27.60;16.77;;;7.10;1.00;;;;;;6280228;22;20335;-89
2022/09/30 02:53:53;;;;;;;28.85;16.65;;;7.00;1.00;;;;;;6281350;22;20062;-89
2022/09/30 02:56:53;;;;;;;28.38;17.50;;;6.90;1.00;;;;;;6277140;22;20020;-88
2022/09/30 02:59:43;;;;;;;33.05;19.95;;;6.90;1.00;;;;;;6259505;22;20411;-88
2022/09/30 03:02:31;;;;;;;36.70;20.23;;;7.00;1.00;;;;;;6280307;22;20023;-89
2022/09/30 03:05:18;;;;;;;36.13;20.30;;;7.00;1.00;;;;;;6260130;22;20287;-87
2022/09/30 03:08:05;;;;;;;29.42;18.40;;;6.90;1.00;;;;;;6281972;22;20050;-88
2022/09/30 03:10:52;;;;;;;30.13;18.75;;;6.90;1.00;;;;;;6276904;22;20027;-86
2022/09/30 03:13:54;;;;;;;32.42;19.42;;;6.80;1.00;;;;;;6280485;22;20024;-88
2022/09/30 03:16:59;;;;;;;34.85;21.17;;;6.70;1.00;;;;;;6280899;22;20028;-89
2022/09/30 03:19:46;;;;;;;40.45;22.65;;;6.70;1.00;;;;;;6277972;22;20019;-88
2022/09/30 03:22:53;;;;;;;42.25;23.50;;;6.70;1.00;;;;;;6280133;22;20020;-87
2022/09/30 03:25:40;;;;;;;35.25;22.40;;;6.60;1.00;;;;;;6276898;22;20031;-88
2022/09/30 03:28:34;;;;;;;41.88;23.77;;;6.60;1.00;;;;;;6278881;22;20027;-88
2022/09/30 03:31:46;;;;;;;39.47;23.38;;;6.60;2.60;;;;;;6278651;22;20050;-90
2022/09/30 03:34:58;;;;;;;40.87;24.53;;;6.60;5.00;;;;;;6280754;22;20032;-88
2022/09/30 03:38:09;;;;;;;53.88;29.30;;;6.70;12.00;;;;;;6282678;22;20019;-87
2022/09/30 03:41:26;;;;;;;50.60;27.35;;;6.70;21.10;;;;;;6282865;22;20042;-89
2022/09/30 03:44:21;;;;;;;50.53;26.52;;;6.80;27.90;;;;;;6281001;22;20034;-87
2022/09/30 03:47:13;;;;;;;48.53;27.40;;;6.70;23.50;;;;;;6279015;22;20028;-87
2022/09/30 03:50:05;;;;;;;33.50;19.98;;;6.60;22.60;;;;;;6259351;22;20416;-87
2022/09/30 03:52:53;;;;;;;55.58;27.85;;;6.50;22.70;;;;;;6282042;22;20028;-88
2022/09/30 03:55:51;;;;;;;50.33;27.35;;;6.50;27.40;;;;;;6292052;22;20027;-88
2022/09/30 03:58:43;;;;;;;48.65;26.35;;;6.40;25.20;;;;;;6294069;22;20491;-88
2022/09/30 04:01:30;;;;;;;50.60;26.95;;;6.30;23.10;;;;;;6273071;22;20072;-88
2022/09/30 04:04:19;;;;;;;61.88;30.02;;;6.20;23.70;;;;;;6294881;22;20047;-88
2022/09/30 04:07:07;;;;;;;56.97;30.23;;;6.20;26.40;;;;;;6296831;22;20023;-87
2022/09/30 04:09:55;;;;;;;67.63;32.15;;;6.30;37.10;;;;;;6301379;22;20012;-86
2022/09/30 04:12:42;;;;;;;65.53;32.90;;;6.40;39.30;;;;;;6305107;22;20027;-88
2022/09/30 04:15:32;;;;;;;67.20;31.67;;;6.40;42.60;;;;;;6299323;22;20075;-88
2022/09/30 04:18:19;;;;;;;55.92;31.00;;;6.40;47.40;;;;;;6298545;22;20126;-83
2022/09/30 04:21:12;;;;;;;62.10;30.48;;;6.50;49.10;;;;;;6303228;22;20027;-86
2022/09/30 04:24:01;;;;;;;53.38;25.77;;;6.50;52.40;;;;;;6302711;22;20059;-84
2022/09/30 04:26:54;;;;;;;50.72;25.52;;;6.60;53.80;;;;;;6301324;22;20038;-87
2022/09/30 04:29:41;;;;;;;44.17;25.00;;;6.50;54.00;;;;;;6304048;22;20026;-87
2022/09/30 04:32:30;;;;;;;43.00;24.65;;;6.40;54.10;;;;;;6301874;22;20109;-88
2022/09/30 04:35:22;;;;;;;45.00;25.05;;;6.40;53.90;;;;;;6291031;22;20027;-88
2022/09/30 04:38:09;;;;;;;48.58;25.83;;;6.30;54.30;;;;;;6291938;22;20020;-85
2022/09/30 04:40:56;;;;;;;53.25;26.95;;;6.30;52.80;;;;;;6293697;22;20028;-86
2022/09/30 04:43:45;;;;;;;47.22;26.23;;;6.30;55.70;;;;;;6291714;22;20042;-87
2022/09/30 04:46:35;;;;;;;51.90;27.83;;;6.20;56.90;;;;;;6266150;22;20050;-89
2022/09/30 04:49:24;;;;;;;50.97;28.02;;;6.20;56.70;;;;;;6279135;22;20051;-87
2022/09/30 04:52:11;;;;;;;55.05;28.40;;;6.20;58.20;;;;;;6286041;22;20046;-88
2022/09/30 04:54:58;;;;;;;52.83;27.50;;;6.30;58.60;;;;;;6279154;22;20034;-87
2022/09/30 04:57:45;;;;;;;51.15;28.00;;;6.40;61.20;;;;;;6278946;22;20023;-86
2022/09/30 05:00:32;;;;;;;54.05;29.23;;;6.40;63.50;;;;;;6277432;22;20386;-87
2022/09/30 05:03:19;;;;;;;48.55;27.85;;;6.50;67.70;;;;;;6284584;22;20073;-88
2022/09/30 05:06:07;;;;;;;61.65;27.60;;;6.50;70.40;;;;;;6283908;22;20050;-88
2022/09/30 05:08:54;;;;;;;44.42;25.60;;;6.60;78.00;;;;;;6285407;22;20024;-88
2022/09/30 05:11:41;;;;;;;51.22;25.52;;;6.60;88.80;;;;;;6290860;22;20078;-89
2022/09/30 05:14:32;;;;;;;47.40;26.60;;;6.60;92.90;;;;;;6268944;22;20024;-86
2022/09/30 05:17:21;;;;;;;52.53;27.38;;;6.70;94.70;;;;;;6287042;22;20034;-87
2022/09/30 05:20:10;;;;;;;45.65;24.98;;;6.70;99.90;;;;;;6295885;22;20110;-88
2022/09/30 05:22:57;;;;;;;52.40;26.40;;;6.70;99.90;;;;;;6293655;22;20411;-88
2022/09/30 05:25:46;;;;;;;65.65;29.80;;;6.70;99.90;;;;;;6290307;22;20024;-87
2022/09/30 05:28:33;;;;;;;56.28;31.20;;;6.70;99.90;;;;;;6279862;22;20049;-87
2022/09/30 05:31:20;;;;;;;60.78;32.72;;;6.70;99.90;;;;;;6277213;22;20038;-85
2022/09/30 05:34:08;;;;;;;50.40;29.13;;;6.70;99.90;;;;;;6277807;22;20485;-88
2022/09/30 05:36:57;;;;;;;53.47;28.55;;;6.80;99.90;;;;;;6259072;22;20103;-87
2022/09/30 05:39:44;;;;;;;56.63;29.40;;;6.80;99.90;;;;;;6257989;22;20028;-87
2022/09/30 05:42:34;;;;;;;58.97;28.55;;;6.80;99.90;;;;;;6256801;22;20023;-88
2022/09/30 05:45:22;;;;;;;62.15;31.20;;;6.80;99.90;;;;;;6256462;22;20073;-88
2022/09/30 05:48:10;;;;;;;68.75;30.70;;;6.90;99.90;;;;;;6279330;22;20042;-89
2022/09/30 05:51:00;;;;;;;70.60;30.63;;;7.00;99.90;;;;;;6278790;22;20030;-87
2022/09/30 05:53:50;;;;;;;70.03;31.58;;;7.00;99.90;;;;;;6259383;22;20029;-88
2022/09/30 05:56:38;;;;;;;60.67;29.25;;;7.00;99.90;;;;;;6264439;22;20026;-86
2022/09/30 05:59:25;;;;;;;65.45;30.35;;;7.10;99.90;;;;;;6290339;22;20016;-87
2022/09/30 06:02:16;;;;;;;61.10;30.02;;;7.20;99.90;;;;;;6293163;22;20008;-87
2022/09/30 06:05:05;;;;;;;61.40;32.88;;;7.30;99.90;;;;;;6291164;22;20080;-87
2022/09/30 06:07:52;;;;;;;67.05;33.13;;;7.30;99.90;;;;;;6284492;22;20030;-86
2022/09/30 06:10:43;;;;;;;48.05;26.02;;;7.40;99.90;;;;;;6276889;22;20038;-87
2022/09/30 06:13:30;;;;;;;45.50;24.58;;;7.40;99.90;;;;;;6257539;22;20023;-86
2022/09/30 06:16:18;;;;;;;46.00;24.83;;;7.40;99.90;;;;;;6279353;22;20103;-87
2022/09/30 06:19:08;;;;;;;43.38;23.90;;;7.30;99.90;;;;;;6254430;22;20023;-87
2022/09/30 06:21:56;;;;;;;47.28;24.95;;;7.30;99.90;;;;;;6277738;22;20102;-87
2022/09/30 06:24:44;;;;;;;50.05;28.00;;;7.40;99.90;;;;;;6255333;22;20020;-87
2022/09/30 06:27:37;;;;;;;45.45;27.25;;;7.50;99.90;;;;;;6258753;22;20027;-87
2022/09/30 06:30:24;;;;;;;;;;;7.80;99.90;;;;;;6281857;22;20031;-88
2022/09/30 06:33:16;;;;;;;48.45;27.20;;;7.90;99.90;;;;;;6260321;22;19943;-88
2022/09/30 06:36:05;;;;;;;42.75;26.15;;;8.10;99.90;;;;;;6278091;22;20421;-87
2022/09/30 06:38:53;;;;;;;46.25;25.50;;;8.20;99.90;;;;;;6279225;22;20030;-89
2022/09/30 06:41:42;;;;;;;48.17;23.02;;;8.40;99.90;;;;;;6276163;22;20023;-87
2022/09/30 06:44:30;;;;;;;40.22;22.98;;;8.50;99.90;;;;;;6254957;22;20034;-87
2022/09/30 06:47:17;;;;;;;31.27;20.20;;;8.60;99.90;;;;;;6276247;22;20035;-87
2022/09/30 06:50:13;;;;;;;28.67;19.50;;;8.60;99.90;;;;;;6278839;22;20024;-88
2022/09/30 06:53:12;;;;;;;26.42;17.40;;;8.60;69.00;;;;;;6277811;22;20095;-89
2022/09/30 06:55:59;;;;;;;27.35;17.20;;;8.60;7.60;;;;;;6277619;22;20024;-90
2022/09/30 06:58:46;;;;;;;18.98;14.15;;;8.70;27.10;;;;;;6277660;22;20023;-88
2022/09/30 07:01:33;;;;;;;21.40;13.60;;;8.90;1.00;;;;;;6281663;22;20469;-88
2022/09/30 07:04:23;;;;;;;18.65;12.63;;;8.90;99.90;;;;;;6276618;22;20034;-87
2022/09/30 07:07:11;;;;;;;21.15;13.77;;;8.90;23.90;;;;;;6278421;22;20023;-87
2022/09/30 07:10:01;;;;;;;21.20;13.00;;;8.90;1.00;;;;;;6278825;22;20023;-88
2022/09/30 07:12:50;;;;;;;25.33;14.75;;;9.10;1.00;;;;;;6254912;22;20039;-87
2022/09/30 07:15:37;;;;;;;29.05;16.70;;;9.30;1.00;;;;;;6283580;22;20081;-88
2022/09/30 07:18:27;;;;;;;26.75;17.00;;;9.50;99.90;;;;;;6282231;22;20065;-86
2022/09/30 07:21:25;;;;;;;25.60;16.83;;;9.60;99.90;;;;;;6254843;22;20015;-89
2022/09/30 07:24:12;;;;;;;22.92;15.88;;;9.80;1.00;;;;;;6256506;22;20066;-85
2022/09/30 07:26:59;;;;;;;30.33;17.90;;;10.00;99.90;;;;;;6279463;22;20034;-87
2022/09/30 07:29:47;;;;;;;25.98;15.50;;;10.10;1.00;;;;;;6280207;22;20028;-86
2022/09/30 07:32:54;;;;;;;25.05;14.13;;;10.30;99.90;;;;;;6275817;22;20438;-87
2022/09/30 07:35:51;;;;;;;19.35;13.60;;;10.50;1.00;;;;;;6275043;22;20038;-87
2022/09/30 07:38:41;;;;;;;26.55;14.65;;;10.40;99.90;;;;;;6256384;22;20412;-87
2022/09/30 07:41:30;;;;;;;17.85;12.55;;;10.50;1.00;;;;;;6279170;22;20585;-86
2022/09/30 07:44:18;;;;;;;18.02;12.93;;;10.50;1.00;;;;;;6280310;22;20095;-86
2022/09/30 07:47:08;;;;;;;25.48;12.57;;;10.50;99.90;;;;;;6280460;22;20027;-87
2022/09/30 07:49:55;;;;;;;17.73;11.77;;;10.60;99.90;;;;;;6279857;22;20094;-86
2022/09/30 07:52:45;;;;;;;20.85;12.00;;;10.80;99.90;;;;;;6277823;22;20154;-86
2022/09/30 07:55:33;;;;;;;22.80;11.45;;;10.90;99.90;;;;;;6280924;22;20031;-89
2022/09/30 07:58:22;;;;;;;16.25;11.15;;;11.10;99.90;;;;;;6280716;22;20023;-88
2022/09/30 08:01:13;;;;;;;16.02;12.10;;;11.40;99.90;;;;;;6259930;22;20109;-87
2022/09/30 08:04:05;;;;;;;21.95;11.93;;;11.40;1.00;;;;;;6258413;22;20019;-88
2022/09/30 08:07:00;;;;;;;20.05;10.85;;;11.40;1.00;;;;;;6279621;22;20035;-87
2022/09/30 08:09:47;;;;;;;19.23;13.38;;;11.50;1.00;;;;;;6278331;22;20035;-86
2022/09/30 08:12:36;;;;;;;20.20;13.00;;;11.40;1.00;;;;;;6278743;22;20024;-87
2022/09/30 08:15:26;;;;;;;21.73;12.13;;;11.60;1.00;;;;;;6278303;22;20108;-87
2022/09/30 08:18:13;;;;;;;18.08;10.98;;;11.60;1.00;;;;;;6278078;22;20095;-87
2022/09/30 08:21:08;;;;;;;22.27;14.52;;;11.70;1.00;;;;;;6276921;22;20102;-87
2022/09/30 08:23:56;;;;;;;25.55;14.68;;;11.40;1.00;;;;;;6257052;22;20099;-88
2022/09/30 08:26:44;;;;;;;22.85;13.85;;;11.40;1.00;;;;;;6278115;22;20024;-87
2022/09/30 08:29:32;;;;;;;26.30;15.15;;;11.50;1.00;;;;;;6255078;22;20455;-87
2022/09/30 08:32:40;;;;;;;18.60;12.55;;;11.70;1.00;;;;;;6279223;22;20034;-89
2022/09/30 08:35:28;;;;;;;22.45;13.30;;;11.80;1.00;;;;;;6277134;22;20323;-88
2022/09/30 08:38:16;;;;;;;20.65;12.07;;;12.00;1.00;;;;;;6276635;22;20125;-86
2022/09/30 08:41:29;;;;;;;14.68;10.63;;;12.30;1.00;;;;;;6276436;22;20289;-88
2022/09/30 08:44:38;;;;;;;18.88;12.23;;;12.50;99.90;;;;;;6278239;22;20419;-88
2022/09/30 08:47:40;;;;;;;16.63;10.50;;;12.70;99.90;;;;;;6276244;22;20085;-87
2022/09/30 08:51:05;;;;;;;16.90;10.43;;;13.00;99.90;;;;;;6278206;22;20031;-86
2022/09/30 08:53:58;;;;;;;17.90;10.15;;;13.50;99.90;;;;;;6278330;22;20431;-88
2022/09/30 08:56:46;;;;;;;13.35;9.30;;;14.30;99.90;;;;;;6278838;22;20023;-87
2022/09/30 08:59:45;;;;;;;14.48;8.90;;;15.30;99.90;;;;;;6256950;22;20122;-88
2022/09/30 09:02:48;;;;;;;13.65;8.45;;;15.70;99.90;;;;;;6276566;22;20416;-88
2022/09/30 09:05:59;;;;;;;16.15;8.13;;;16.00;99.90;;;;;;6277227;22;20047;-87
2022/09/30 09:08:51;;;;;;;11.63;7.38;;;16.70;99.90;;;;;;6278425;22;20039;-87
2022/09/30 09:11:47;;;;;;;;;;;17.20;99.90;;;;;;6277127;22;20027;-87
2022/09/30 09:14:52;;;;;;;9.85;6.82;;;17.10;99.90;;;;;;6276308;22;20322;-88
2022/09/30 09:17:59;;;;;;;10.90;6.45;;;17.30;99.90;;;;;;6277420;22;20051;-88
2022/09/30 09:21:15;;;;;;;9.50;6.90;;;17.80;99.90;;;;;;6282229;22;20032;-88
2022/09/30 09:24:04;;;;;;;8.30;6.15;;;17.60;99.90;;;;;;6277536;22;20521;-87
2022/09/30 09:26:59;;;;;;;6.70;5.28;;;17.50;99.90;;;;;;6276670;22;20031;-88
2022/09/30 09:30:13;;;;;;;17.48;5.60;;;17.70;99.90;;;;;;6276696;22;20487;-88
2022/09/30 09:33:21;;;;;;;12.77;6.20;;;17.70;97.40;;;;;;6276273;22;20035;-86
2022/09/30 09:36:15;;;;;;;9.57;6.88;;;18.00;98.70;;;;;;6255416;22;20047;-86
2022/09/30 09:39:11;;;;;;;14.27;6.30;;;18.00;94.60;;;;;;6277856;22;20051;-87
2022/09/30 09:42:20;;;;;;;11.85;6.45;;;18.90;88.40;;;;;;6277846;22;20085;-87
2022/09/30 09:45:25;;;;;;;10.02;5.95;;;19.20;82.20;;;;;;6277071;22;20678;-88
2022/09/30 09:48:15;;;;;;;8.18;5.68;;;19.50;60.30;;;;;;6278617;22;20031;-89
2022/09/30 09:51:18;;;;;;;8.05;5.70;;;19.50;68.60;;;;;;6260237;22;20107;-89
2022/09/30 09:54:09;;;;;;;6.15;4.07;;;19.80;57.40;;;;;;6278587;22;20043;-87
2022/09/30 09:57:08;;;;;;;6.80;2.83;;;19.30;45.30;;;;;;6280437;22;20427;-88
2022/09/30 10:00:45;;;;;;;5.30;3.25;;;19.00;37.30;;;;;;6257968;22;20039;-87
2022/09/30 10:03:17;;;;;;;3.03;2.67;;;18.90;32.70;;;;;;6280381;22;20024;-88
2022/09/30 10:06:09;;;;;;;7.47;4.65;;;19.20;35.60;;;;;;6278825;22;20070;-88
2022/09/30 10:08:57;;;;;;;4.55;3.38;;;19.50;36.60;;;;;;6281264;22;20035;-89
2022/09/30 10:11:47;;;;;;;6.50;3.70;;;19.70;28.50;;;;;;6287984;22;20053;-85
2022/09/30 10:14:48;;;;;;;6.38;3.13;;;20.20;26.20;;;;;;6261797;22;20073;-85
2022/09/30 10:17:36;;;;;;;11.32;3.15;;;21.30;16.20;;;;;;6255353;22;20038;-87
2022/09/30 10:20:31;;;;;;;5.40;3.30;;;21.30;15.90;;;;;;6276956;22;20074;-86
2022/09/30 10:23:35;;;;;;;5.53;3.40;;;20.90;8.90;;;;;;6277414;22;20153;-88
2022/09/30 10:26:25;;;;;;;5.70;3.35;;;19.50;2.40;;;;;;6277674;22;20405;-89
2022/09/30 10:29:28;;;;;;;7.38;3.78;;;19.00;5.80;;;;;;6282824;22;20023;-89
2022/09/30 10:32:15;;;;;;;6.90;3.92;;;18.70;5.30;;;;;;6282088;22;20082;-88
2022/09/30 10:35:16;;;;;;;7.68;4.22;;;18.20;7.20;;;;;;6286192;22;20020;-85
2022/09/30 10:38:04;;;;;;;6.25;3.70;;;17.40;4.80;;;;;;6279295;22;20020;-84
2022/09/30 10:40:53;;;;;;;8.00;3.92;;;16.70;12.00;;;;;;6278670;22;20103;-85
2022/09/30 10:43:48;;;;;;;7.28;3.88;;;16.60;14.70;;;;;;6256259;22;20135;-87
2022/09/30 10:46:39;;;;;;;6.47;4.07;;;17.60;12.90;;;;;;6275941;22;20016;-86
2022/09/30 10:50:04;;;;;;;5.10;3.60;;;19.20;9.40;;;;;;6278723;22;20389;-86
2022/09/30 10:53:16;;;;;;;4.95;3.00;;;20.90;1.00;;;;;;6276150;22;20106;-86
2022/09/30 10:56:06;;;;;;;5.10;2.30;;;20.50;8.00;;;;;;6252812;22;20023;-85
2022/09/30 10:58:55;;;;;;;6.53;2.50;;;20.20;1.00;;;;;;6279775;22;20020;-86
2022/09/30 11:01:57;;;;;;;3.95;2.28;;;20.80;1.00;;;;;;6280805;22;20030;-87
2022/09/30 11:05:14;;;;;;;4.80;2.50;;;21.70;1.00;;;;;;6276877;22;20030;-88
2022/09/30 11:08:07;;;;;;;5.05;2.10;;;22.40;1.00;;;;;;6274728;22;20112;-86
2022/09/30 11:11:26;;;;;;;5.50;2.50;;;23.40;1.00;;;;;;6277291;22;20059;-85
2022/09/30 11:14:30;;;;;;;5.72;2.78;;;23.30;1.00;;;;;;6278345;22;20028;-86
2022/09/30 11:17:37;;;;;;;4.03;2.30;;;22.60;1.00;;;;;;6276813;22;20027;-87
2022/09/30 11:20:50;;;;;;;4.38;2.42;;;22.30;1.00;;;;;;6256256;22;20024;-85
2022/09/30 11:24:17;;;;;;;3.83;2.70;;;23.30;1.00;;;;;;6278642;22;20374;-84
2022/09/30 11:27:37;;;;;;;5.65;2.47;;;23.40;1.00;;;;;;6232294;22;20099;-86
2022/09/30 11:30:43;;;;;;;3.97;2.92;;;24.00;1.00;;;;;;6281275;22;20051;-84
2022/09/30 11:34:21;;;;;;;4.75;2.72;;;23.40;1.00;;;;;;6278214;22;20406;-85
2022/09/30 11:37:29;;;;;;;4.22;2.72;;;23.20;1.00;;;;;;6245972;22;20334;-88
2022/09/30 11:40:37;;;;;;;3.30;2.75;;;23.90;1.00;;;;;;6279156;22;20363;-86
2022/09/30 11:43:59;;;;;;;4.63;2.83;;;23.50;1.00;;;;;;6256770;22;20114;-87
2022/09/30 11:47:07;;;;;;;4.45;2.80;;;23.30;1.00;;;;;;6276491;22;20074;-86
2022/09/30 11:50:04;;;;;;;3.55;2.58;;;21.80;1.00;;;;;;6279293;22;20023;-87
2022/09/30 11:53:11;;;;;;;4.60;2.78;;;20.40;1.00;;;;;;6281680;22;20024;-86
2022/09/30 11:56:17;;;;;;;3.97;2.88;;;19.70;1.00;;;;;;6278414;22;20083;-88
2022/09/30 11:59:17;;;;;;;4.40;3.28;;;19.00;1.00;;;;;;6281088;22;20019;-86
2022/09/30 12:02:43;;;;;;;4.13;3.17;;;17.40;1.00;;;;;;6282292;22;20075;-85
2022/09/30 12:05:46;;;;;;;6.90;3.70;;;16.30;1.00;;;;;;6276217;22;20039;-86
2022/09/30 12:08:41;;;;;;;6.53;3.35;;;15.80;1.00;;;;;;6279781;22;20047;-87
2022/09/30 12:11:45;;;;;;;4.57;2.70;;;15.40;1.00;;;;;;6278812;22;20097;-87
2022/09/30 12:14:49;;;;;;;7.63;2.85;;;15.20;1.00;;;;;;6259106;22;20489;-87
2022/09/30 12:17:40;;;;;;;11.35;3.70;;;15.00;1.00;;;;;;6290769;22;20034;-87
2022/09/30 12:20:34;;;;;;;4.50;3.20;;;15.10;1.00;;;;;;6294473;22;20054;-86
2022/09/30 12:23:32;;;;;;;4.03;2.90;;;14.90;1.00;;;;;;6293516;22;20092;-87
2022/09/30 12:26:24;;;;;;;4.70;2.97;;;14.90;1.00;;;;;;6276073;22;20027;-83
2022/09/30 12:32:41;;;;;;;5.32;2.60;;;14.80;1.00;;;;;;6303206;22;20023;-85
2022/09/30 12:35:54;;;;;;;5.65;2.28;;;15.00;1.00;;;;;;6272813;22;20023;-87
2022/09/30 12:38:56;;;;;;;4.90;2.42;;;15.00;1.00;;;;;;6292292;22;20106;-88
2022/09/30 12:41:47;;;;;;;;;;;15.10;1.00;;;;;;6293099;22;20023;-87
2022/09/30 12:44:54;;;;;;;7.75;2.28;;;15.30;1.00;;;;;;6288067;22;19950;-88
2022/09/30 12:47:48;;;;;;;3.03;2.33;;;15.40;1.00;;;;;;6280123;22;20382;-90
2022/09/30 12:50:56;;;;;;;4.13;2.10;;;15.70;1.00;;;;;;6280084;22;20085;-89
2022/09/30 12:53:50;;;;;;;5.32;2.17;;;15.80;1.00;;;;;;6277953;22;20098;-88
2022/09/30 12:56:44;;;;;;;4.15;2.30;;;15.70;1.00;;;;;;6280013;22;20023;-88
2022/09/30 13:00:26;;;;;;;5.03;2.03;;;15.70;1.00;;;;;;6281288;22;20031;-87
2022/09/30 13:03:17;;;;;;;2.92;1.70;;;15.80;1.00;;;;;;6146886;22;20021;-88
2022/09/30 13:06:06;;;;;;;4.22;2.40;;;15.70;1.00;;;;;;6256055;22;20122;-89
2022/09/30 13:09:21;;;;;;;2.70;1.70;;;15.80;1.00;;;;;;6277043;22;20020;-87
2022/09/30 13:12:23;;;;;;;3.55;1.75;;;15.90;1.00;;;;;;6277000;22;20019;-87
2022/09/30 13:15:26;;;;;;;3.10;1.70;;;15.90;1.00;;;;;;6278492;22;20020;-87
2022/09/30 13:18:19;;;;;;;2.67;1.70;;;16.10;1.00;;;;;;6279589;22;20403;-89
2022/09/30 13:21:07;;;;;;;2.13;1.50;;;16.20;1.00;;;;;;6276891;22;20023;-87
2022/09/30 13:23:55;;;;;;;4.45;1.73;;;16.30;1.00;;;;;;6278590;22;20105;-88
2022/09/30 13:26:47;;;;;;;3.90;1.85;;;17.00;1.00;;;;;;6257203;22;20024;-89
2022/09/30 13:29:38;;;;;;;2.40;1.30;;;19.50;1.00;;;;;;6276675;22;20126;-87
2022/09/30 13:32:40;;;;;;;1.48;1.10;;;22.70;1.00;;;;;;6257549;22;20102;-87
2022/09/30 13:35:39;;;;;;;2.63;1.17;;;25.20;1.00;;;;;;6256827;22;20059;-87
2022/09/30 13:38:36;;;;;;;2.42;1.05;;;26.10;1.00;;;;;;6279139;22;20103;-87
2022/09/30 13:41:24;;;;;;;2.38;0.88;;;27.20;1.00;;;;;;6256177;22;20023;-87
2022/09/30 13:44:19;;;;;;;2.28;1.30;;;27.70;1.00;;;;;;6276383;22;20120;-88
2022/09/30 13:47:20;;;;;;;1.33;1.00;;;27.30;1.00;;;;;;6278203;22;20319;-88
2022/09/30 13:50:16;;;;;;;1.77;0.80;;;26.10;1.00;;;;;;6257135;22;20027;-87
2022/09/30 13:53:14;;;;;;;1.27;0.80;;;26.30;1.00;;;;;;6281575;22;20038;-87
2022/09/30 13:56:16;;;;;;;2.08;0.90;;;25.20;1.00;;;;;;6257430;22;20072;-87
2022/09/30 13:59:14;;;;;;;1.90;0.70;;;25.20;1.00;;;;;;6277667;22;20415;-89
2022/09/30 14:02:32;;;;;;;3.40;0.95;;;25.40;1.00;;;;;;6279490;22;20055;-89
2022/09/30 14:05:40;;;;;;;2.08;0.90;;;25.40;1.00;;;;;;6258749;22;20030;-90
2022/09/30 14:09:03;;;;;;;3.83;0.98;;;26.30;1.00;;;;;;6279898;22;20095;-88
2022/09/30 14:12:15;;;;;;;1.50;0.90;;;23.70;1.00;;;;;;6276061;22;20108;-88
2022/09/30 14:15:17;;;;;;;3.17;1.02;;;21.50;1.00;;;;;;6277437;22;20034;-86
2022/09/30 14:18:23;;;;;;;4.65;1.10;;;20.30;1.00;;;;;;6279963;22;20078;-87
2022/09/30 14:21:40;;;;;;;2.60;1.20;;;19.60;1.00;;;;;;6277952;22;20307;-88
2022/09/30 14:24:32;;;;;;;2.53;1.30;;;19.00;1.00;;;;;;6277866;22;20095;-88
2022/09/30 14:27:44;;;;;;;2.58;1.50;;;18.40;1.00;;;;;;6277115;22;20027;-87
2022/09/30 14:30:41;;;;;;;1.73;1.30;;;18.30;1.00;;;;;;6257210;22;20449;-87
2022/09/30 14:33:30;;;;;;;2.20;1.20;;;17.90;1.00;;;;;;6277662;22;20034;-88
2022/09/30 14:36:20;;;;;;;2.33;1.38;;;17.70;1.00;;;;;;6256648;22;20111;-88
2022/09/30 14:39:27;;;;;;;2.53;1.30;;;17.60;1.00;;;;;;6279177;22;20027;-87
2022/09/30 14:42:23;;;;;;;2.03;1.20;;;17.50;1.00;;;;;;6255494;22;20024;-86
2022/09/30 14:45:29;;;;;;;4.15;1.45;;;17.20;1.00;;;;;;6277166;22;20095;-86
2022/09/30 14:48:31;;;;;;;2.40;1.00;;;17.30;1.00;;;;;;6278214;22;20365;-87
2022/09/30 14:51:19;;;;;;;2.42;1.42;;;18.00;1.00;;;;;;6278834;22;20028;-87
2022/09/30 14:54:28;;;;;;;2.33;1.13;;;18.80;1.00;;;;;;6278615;22;20028;-87
2022/09/30 14:57:16;;;;;;;5.63;1.20;;;19.70;1.00;;;;;;6278361;22;20027;-87
2022/09/30 15:00:20;;;;;;;1.45;1.20;;;19.30;1.00;;;;;;6280223;22;20075;-88
2022/09/30 15:03:28;;;;;;;3.03;1.50;;;18.30;1.00;;;;;;6281391;22;20019;-88
2022/09/30 15:06:24;;;;;;;2.22;1.40;;;17.20;1.00;;;;;;6279546;22;20024;-86
2022/09/30 15:09:20;;;;;;;2.95;1.40;;;17.10;1.00;;;;;;6280691;22;20020;-86
2022/09/30 15:12:13;;;;;;;2.03;1.30;;;17.40;1.00;;;;;;6279403;22;20020;-88
2022/09/30 15:15:00;;;;;;;2.28;1.50;;;18.60;1.00;;;;;;6278743;22;20099;-87
2022/09/30 15:17:50;;;;;;;1.58;1.10;;;19.70;1.00;;;;;;6281272;22;20023;-88
2022/09/30 15:20:42;;;;;;;1.92;1.20;;;20.60;1.00;;;;;;6283089;22;20094;-88